Time;durP1;ratioP1;P1;durP2;ratioP2;P2;SDS_P1;SDS_P2;PMS_P1;PMS_P2;Temp;Humidity;BMP_temperature;BMP_pressure;BME280_temperature;BME280_humidity;BME280_pressure;Samples;Min_cycle;Max_cycle;Signal;HPM_P1;HPM_P2
2021/12/04 00:00:16;;;;;;;13.68;1.92;;;;;;;17.37;68.08;101175.03;5029229;28;20122;-70
2021/12/04 00:02:46;;;;;;;18.88;3.00;;;;;;;17.26;69.34;101163.56;5036096;28;20140;-70
2021/12/04 00:05:14;;;;;;;14.93;3.25;;;;;;;17.17;69.79;101152.91;5042292;28;20037;-69
2021/12/04 00:07:42;;;;;;;4.70;1.48;;;;;;;17.23;69.83;101139.53;5047645;28;20041;-70
2021/12/04 00:10:13;;;;;;;10.70;1.98;;;;;;;17.25;69.93;101135.09;5018455;28;20049;-70
2021/12/04 00:12:41;;;;;;;11.93;1.20;;;;;;;17.22;71.09;101161.78;5037143;28;20037;-70
2021/12/04 00:15:09;;;;;;;13.95;1.38;;;;;;;17.16;71.51;101151.13;5048460;28;20489;-70
2021/12/04 00:17:37;;;;;;;4.07;1.05;;;;;;;17.07;72.23;101138.72;5033043;28;20493;-70
2021/12/04 00:20:09;;;;;;;6.40;1.15;;;;;;;17.06;72.83;101133.41;5039432;28;20486;-70
2021/12/04 00:22:37;;;;;;;7.57;0.90;;;;;;;17.02;73.42;101132.53;5025956;28;20046;-70
2021/12/04 00:25:05;;;;;;;7.65;1.55;;;;;;;16.96;74.15;101134.34;5028382;28;20107;-69
2021/12/04 00:27:33;;;;;;;11.65;1.45;;;;;;;16.97;73.97;101134.34;5027286;28;20041;-70
2021/12/04 00:30:01;;;;;;;7.65;1.00;;;;;;;16.98;73.61;101121.88;5020492;28;20042;-69
2021/12/04 00:32:31;;;;;;;9.82;1.25;;;;;;;17.02;73.63;101113.84;5024983;28;20052;-69
2021/12/04 00:35:08;;;;;;;7.15;1.48;;;;;;;17.02;73.80;101115.63;5028474;28;20505;-69
2021/12/04 00:37:55;;;;;;;11.73;2.40;;;;;;;17.01;73.64;101124.53;5029187;28;20046;-69
2021/12/04 00:51:29;;;;;;;5.22;2.10;;;;;;;16.83;74.87;101152.16;5017655;28;20046;-69
2021/12/04 00:56:35;;;;;;;9.68;2.10;;;;;;;16.97;74.69;101153.00;4526432;23;20512;-69
2021/12/04 00:59:02;;;;;;;11.10;2.50;;;;;;;17.01;74.63;101153.88;4973038;28;20587;-69
2021/12/04 01:01:30;;;;;;;10.52;2.72;;;;;;;16.95;74.62;101149.44;4959035;28;20387;-69
2021/12/04 01:03:58;;;;;;;3.35;1.33;;;;;;;16.97;74.60;101147.66;4972520;28;20055;-69
2021/12/04 01:06:26;;;;;;;9.18;1.52;;;;;;;17.01;74.73;101140.53;4968554;28;20049;-69
2021/12/04 01:08:54;;;;;;;5.15;1.45;;;;;;;16.99;74.94;101140.56;4977134;28;20132;-69
2021/12/04 01:11:22;;;;;;;5.05;1.58;;;;;;;17.02;74.94;101132.53;4968514;28;20513;-69
2021/12/04 01:13:52;;;;;;;6.70;1.88;;;;;;;17.03;75.04;101122.75;4966231;28;20470;-69
2021/12/04 01:16:20;;;;;;;6.47;1.45;;;;;;;16.98;75.40;101120.09;4966518;28;20457;-69
2021/12/04 01:18:48;;;;;;;9.10;1.60;;;;;;;17.00;75.15;101106.78;4966785;28;20169;-69
2021/12/04 01:21:16;;;;;;;9.43;1.70;;;;;;;17.01;75.20;101104.06;4980504;28;20771;-69
2021/12/04 01:23:44;;;;;;;4.63;1.45;;;;;;;17.03;75.08;101104.97;4968694;28;20054;-69
2021/12/04 01:26:13;;;;;;;5.82;1.40;;;;;;;16.97;75.11;101097.00;4966278;28;20712;-69
2021/12/04 01:28:41;;;;;;;5.82;1.65;;;;;;;16.81;75.71;101100.59;4967609;28;20081;-70
2021/12/04 01:31:10;;;;;;;7.40;2.80;;;;;;;16.69;76.44;101100.66;4967682;28;20109;-69
2021/12/04 01:33:38;;;;;;;9.30;2.45;;;;;;;16.61;76.93;101106.03;4967039;28;20505;-69
2021/12/04 01:36:06;;;;;;;6.88;2.90;;;;;;;16.61;77.13;101102.47;4956660;28;20058;-69
2021/12/04 01:38:34;;;;;;;15.00;4.13;;;;;;;16.72;76.95;101103.34;4956635;28;20050;-69
2021/12/04 01:41:02;;;;;;;14.60;3.30;;;;;;;16.76;76.69;101094.41;4969630;28;20064;-69
2021/12/04 01:43:30;;;;;;;6.38;3.22;;;;;;;16.73;76.87;101116.66;4973201;28;20124;-69
2021/12/04 01:45:59;;;;;;;7.32;3.42;;;;;;;16.73;77.12;101132.66;4970734;28;20170;-69
2021/12/04 01:48:28;;;;;;;7.63;2.83;;;;;;;16.75;77.39;101121.97;4972677;28;20061;-69
2021/12/04 01:50:56;;;;;;;7.07;1.35;;;;;;;16.73;77.53;101114.00;4987597;28;20121;-69
2021/12/04 01:53:25;;;;;;;8.45;2.13;;;;;;;16.69;77.66;101117.56;4971209;28;20152;-69
2021/12/04 01:55:55;;;;;;;4.75;1.33;;;;;;;16.64;77.68;101114.03;4973044;28;20133;-69
2021/12/04 01:58:25;;;;;;;3.30;1.10;;;;;;;16.54;77.70;101103.38;4973370;28;20108;-69
2021/12/04 02:00:53;;;;;;;6.82;1.17;;;;;;;16.51;78.10;101101.59;4970694;28;20054;-68
2021/12/04 02:03:22;;;;;;;3.20;1.25;;;;;;;16.50;78.13;101086.50;4970955;28;21448;-69
2021/12/04 02:05:52;;;;;;;8.02;1.30;;;;;;;16.50;78.21;101081.16;4972571;28;20095;-69
2021/12/04 02:08:22;;;;;;;8.43;1.30;;;;;;;16.48;78.48;101084.72;4991115;28;20049;-69
2021/12/04 02:10:51;;;;;;;9.15;1.40;;;;;;;16.43;78.65;101082.06;4974183;28;20101;-69
2021/12/04 02:13:19;;;;;;;4.97;1.13;;;;;;;16.35;78.76;101078.53;4985971;28;20049;-69
2021/12/04 02:15:48;;;;;;;7.75;1.77;;;;;;;16.26;78.99;101079.47;4976817;28;20672;-69
2021/12/04 02:18:18;;;;;;;7.35;1.70;;;;;;;16.20;79.37;101083.94;4965613;28;20043;-69
2021/12/04 02:20:48;;;;;;;6.70;1.40;;;;;;;16.13;79.62;101093.72;4959168;28;20046;-69
2021/12/04 02:23:16;;;;;;;13.07;2.78;;;;;;;16.20;79.78;101103.47;4971262;28;20082;-69
2021/12/04 02:25:43;;;;;;;4.88;1.38;;;;;;;16.26;79.56;101099.91;4978018;28;20136;-69
2021/12/04 02:28:12;;;;;;;7.95;2.22;;;;;;;16.32;79.18;101094.56;4972385;28;20137;-69
2021/12/04 02:30:43;;;;;;;9.50;1.83;;;;;;;16.33;79.00;101093.66;4972427;28;20096;-69
2021/12/04 02:33:29;;;;;;;7.72;1.52;;;;;;;16.30;79.08;101091.00;5053651;27;20507;-67
2021/12/04 02:36:02;;;;;;;4.45;1.33;;;;;;;16.29;79.16;101075.91;5051868;28;20125;-67
2021/12/04 02:38:30;;;;;;;6.05;1.40;;;;;;;16.29;79.18;101076.78;5060762;28;20135;-67
2021/12/04 02:41:00;;;;;;;6.55;2.28;;;;;;;16.28;79.47;101067.00;5063458;28;20063;-67
2021/12/04 02:43:29;;;;;;;5.28;1.30;;;;;;;16.25;79.74;101063.47;5062219;28;20056;-67
2021/12/04 02:45:57;;;;;;;4.95;1.60;;;;;;;16.25;79.80;101045.72;5062110;28;20155;-67
2021/12/04 02:48:25;;;;;;;2.97;1.05;;;;;;;16.26;79.78;101041.28;5063635;28;20167;-67
2021/12/04 02:50:54;;;;;;;3.53;1.20;;;;;;;16.26;79.41;101042.19;5063742;28;20040;-68
2021/12/04 02:53:22;;;;;;;3.92;0.98;;;;;;;16.24;79.56;101048.38;5062595;28;20055;-68
2021/12/04 02:55:53;;;;;;;9.52;1.17;;;;;;;16.14;80.08;101050.22;5061943;28;20068;-68
2021/12/04 02:58:21;;;;;;;5.40;1.20;;;;;;;16.14;80.14;101041.31;5064238;28;20526;-67
2021/12/04 03:00:50;;;;;;;4.70;1.02;;;;;;;16.18;80.10;101040.41;5061230;28;20093;-68
2021/12/04 03:03:20;;;;;;;6.72;1.17;;;;;;;16.22;79.97;101035.06;5062349;28;20049;-67
2021/12/04 03:05:50;;;;;;;6.97;1.88;;;;;;;16.23;79.75;101046.59;5063826;28;20056;-67
2021/12/04 03:08:19;;;;;;;8.02;1.30;;;;;;;16.25;79.68;101044.84;5095192;28;20182;-68
2021/12/04 03:10:48;;;;;;;7.75;1.30;;;;;;;16.24;79.71;101033.28;5062911;28;20052;-68
2021/12/04 03:13:18;;;;;;;24.73;16.80;;;;;;;16.25;79.54;101027.06;5061197;28;20052;-67
2021/12/04 03:15:49;;;;;;;17.95;11.43;;;;;;;16.27;79.49;101014.66;5061293;28;20129;-68
2021/12/04 03:18:17;;;;;;;19.15;10.02;;;;;;;16.26;79.56;101009.31;5062638;28;20047;-67
2021/12/04 03:20:46;;;;;;;20.30;11.45;;;;;;;16.25;79.64;101012.88;5063418;28;20059;-67
2021/12/04 03:23:25;;;;;;;17.80;6.90;;;;;;;16.29;79.60;101011.94;5061815;28;20167;-68
2021/12/04 03:25:55;;;;;;;7.60;2.63;;;;;;;16.28;79.72;101000.41;5062934;28;20052;-68
2021/12/04 03:28:23;;;;;;;6.35;1.77;;;;;;;16.28;79.60;100988.84;5061309;28;20519;-68
2021/12/04 03:30:55;;;;;;;5.43;1.40;;;;;;;16.28;79.47;100981.75;5062416;28;20415;-68
2021/12/04 03:41:39;;;;;;;11.10;3.15;;;;;;;16.06;80.16;100992.50;5061097;28;20052;-69
2021/12/04 03:44:07;;;;;;;10.30;1.35;;;;;;;16.10;80.11;101002.25;5035731;28;20056;-68
2021/12/04 03:46:35;;;;;;;8.20;1.80;;;;;;;16.14;79.96;101006.69;5051207;28;20057;-68
2021/12/04 03:49:03;;;;;;;8.80;1.63;;;;;;;16.11;79.81;101006.69;5048098;28;21675;-68
2021/12/04 03:51:31;;;;;;;10.73;3.15;;;;;;;15.99;79.99;101001.41;5049472;28;20361;-68
2021/12/04 03:54:02;;;;;;;9.82;2.03;;;;;;;15.91;80.34;100996.09;5047808;28;20387;-68
2021/12/04 03:56:31;;;;;;;4.18;1.75;;;;;;;15.94;80.48;100996.09;5048065;28;20076;-67
2021/12/04 03:58:59;;;;;;;6.07;2.05;;;;;;;15.99;80.36;101006.72;5048953;28;20514;-67
2021/12/04 04:01:27;;;;;;;6.57;1.42;;;;;;;15.98;80.30;101019.16;5048841;28;20067;-67
2021/12/04 04:03:56;;;;;;;5.25;1.63;;;;;;;15.93;80.44;101031.59;5048315;28;20056;-67
2021/12/04 04:06:24;;;;;;;12.45;2.88;;;;;;;15.97;80.40;101032.47;5030547;28;20984;-67
2021/12/04 04:08:51;;;;;;;14.55;4.78;;;;;;;15.98;80.21;101039.56;5079760;28;20093;-67
2021/12/04 04:11:21;;;;;;;8.85;3.30;;;;;;;16.03;80.08;101021.81;5065418;28;20784;-67
2021/12/04 04:13:49;;;;;;;11.02;2.63;;;;;;;16.07;79.98;101015.59;5047494;28;20673;-67
2021/12/04 04:16:16;;;;;;;9.50;2.38;;;;;;;16.04;79.73;100989.84;5047583;28;20186;-67
2021/12/04 04:18:45;;;;;;;6.38;1.60;;;;;;;16.01;79.71;100979.22;5047989;28;20621;-67
2021/12/04 04:21:12;;;;;;;7.80;1.40;;;;;;;15.97;79.92;100984.53;5046095;28;20233;-67
2021/12/04 04:23:40;;;;;;;5.05;1.23;;;;;;;15.94;80.13;100994.34;5048410;28;20052;-67
2021/12/04 04:26:08;;;;;;;9.50;2.40;;;;;;;15.95;80.17;100998.75;5048913;28;20048;-67
2021/12/04 04:28:37;;;;;;;16.05;7.18;;;;;;;16.02;80.04;100996.06;5080280;28;20510;-67
2021/12/04 04:31:08;;;;;;;11.77;3.42;;;;;;;16.03;80.04;100995.16;5046612;28;20668;-68
2021/12/04 04:33:39;;;;;;;9.77;1.92;;;;;;;16.00;79.65;100996.09;5048413;28;20063;-67
2021/12/04 04:36:18;;;;;;;8.20;2.20;;;;;;;15.94;79.96;101004.09;5030592;28;20205;-68
2021/12/04 04:38:53;;;;;;;9.88;1.73;;;;;;;15.91;79.90;100999.66;5047282;28;20569;-67
2021/12/04 05:01:01;;;;;;;9.38;1.73;;;;;;;15.76;79.75;100969.50;5046831;28;20048;-70
2021/12/04 05:11:46;;;;;;;4.82;1.50;;;;;;;15.79;79.91;100969.50;5046773;28;19927;-67
2021/12/04 05:14:18;;;;;;;12.07;6.47;;;;;;;15.82;79.92;100970.38;5046921;28;20072;-68
2021/12/04 05:16:52;;;;;;;24.38;12.70;;;;;;;15.82;79.79;100965.03;5046489;28;20044;-67
2021/12/04 05:19:38;;;;;;;29.88;18.80;;;;;;;15.80;79.90;100960.63;5044947;28;20410;-67
2021/12/04 05:22:06;;;;;;;31.33;22.33;;;;;;;15.77;80.11;100949.97;5045292;28;20067;-67
2021/12/04 05:24:35;;;;;;;14.88;10.80;;;;;;;15.78;80.13;100941.13;5047383;28;20052;-67
2021/12/04 05:27:02;;;;;;;12.20;7.95;;;;;;;15.78;80.23;100936.69;5047726;28;20049;-67
2021/12/04 05:29:30;;;;;;;17.90;11.77;;;;;;;15.81;80.15;100941.13;5044972;28;20517;-69
2021/12/04 05:32:00;;;;;;;25.25;8.55;;;;;;;15.84;80.18;100946.41;5045885;28;20096;-70
2021/12/04 05:34:29;;;;;;;15.90;7.75;;;;;;;15.84;80.12;100957.97;5078972;28;20044;-70
2021/12/04 05:36:57;;;;;;;11.45;7.97;;;;;;;15.86;80.10;100966.84;5041800;28;20059;-70
2021/12/04 05:39:25;;;;;;;10.68;4.97;;;;;;;15.91;79.59;100974.78;5046393;28;20045;-70
2021/12/04 05:41:53;;;;;;;20.33;8.02;;;;;;;15.99;79.45;100988.09;5047273;28;20106;-69
2021/12/04 05:44:25;;;;;;;20.85;11.65;;;;;;;16.03;79.45;100988.06;5059117;28;20635;-70
2021/12/04 05:46:58;;;;;;;21.02;12.75;;;;;;;16.08;79.38;100974.75;5046279;28;21038;-69
2021/12/04 05:49:33;;;;;;;15.85;10.90;;;;;;;16.11;79.33;100988.06;5044701;28;20155;-67
2021/12/04 05:52:11;;;;;;;13.50;5.68;;;;;;;16.13;79.02;101010.25;5058171;28;21416;-67
2021/12/04 05:57:26;;;;;;;13.23;4.30;;;;;;;16.15;78.89;100968.50;5041633;28;20053;-67
2021/12/04 05:59:54;;;;;;;26.90;20.77;;;;;;;16.11;78.67;100910.81;5045273;28;20413;-67
2021/12/04 06:02:22;;;;;;;14.52;6.97;;;;;;;16.07;78.32;100879.78;5046329;28;20128;-67
2021/12/04 06:04:51;;;;;;;9.75;1.98;;;;;;;16.26;76.39;100861.03;5044389;28;20045;-67
2021/12/04 06:07:19;;;;;;;7.75;1.25;;;;;;;16.31;74.93;100868.97;5045516;28;20067;-66
2021/12/04 06:09:47;;;;;;;3.97;1.20;;;;;;;16.21;75.93;100904.56;5045731;28;20167;-68
2021/12/04 06:12:15;;;;;;;9.38;1.80;;;;;;;16.15;76.48;100907.22;5045820;28;20045;-68
2021/12/04 06:14:45;;;;;;;5.35;1.40;;;;;;;16.17;77.12;100878.81;5045940;28;20139;-68
2021/12/04 06:17:14;;;;;;;4.20;1.08;;;;;;;16.19;77.46;100909.91;5046493;28;20060;-68
2021/12/04 06:22:42;;;;;;;13.00;6.63;;;;;;;16.15;78.06;100948.06;5045933;28;20392;-68
2021/12/04 06:25:12;;;;;;;26.05;16.95;;;;;;;16.15;78.22;100939.19;5060020;28;20056;-68
2021/12/04 06:27:40;;;;;;;14.15;9.68;;;;;;;16.21;78.26;100901.91;5042432;28;20087;-68
2021/12/04 06:30:12;;;;;;;25.40;18.10;;;;;;;16.24;78.22;100886.78;5043351;28;20165;-68
2021/12/04 06:32:40;;;;;;;30.70;22.05;;;;;;;16.24;78.41;100869.91;5043202;28;20056;-69
2021/12/04 06:35:11;;;;;;;26.25;14.63;;;;;;;16.31;78.31;100864.53;5043604;28;20381;-69
2021/12/04 06:37:41;;;;;;;21.58;13.80;;;;;;;16.36;78.25;100867.16;5044223;28;21722;-68
2021/12/04 06:40:12;;;;;;;23.52;13.77;;;;;;;16.43;78.47;100878.66;5027744;28;20052;-68
2021/12/04 06:42:40;;;;;;;27.30;17.60;;;;;;;16.71;79.11;100880.28;5044033;28;20057;-69
2021/12/04 06:45:10;;;;;;;32.55;25.77;;;;;;;16.99;79.33;100871.16;5045501;28;20052;-68
2021/12/04 06:47:40;;;;;;;21.08;13.35;;;;;;;17.11;78.43;100852.38;5045993;28;20052;-68
2021/12/04 06:50:14;;;;;;;10.43;3.45;;;;;;;17.24;77.86;100821.13;5043740;28;20044;-68
2021/12/04 06:52:46;;;;;;;5.97;1.77;;;;;;;17.14;76.92;100814.09;5043306;28;20177;-68
2021/12/04 06:55:16;;;;;;;9.35;1.80;;;;;;;17.13;77.00;100825.69;5045320;28;20041;-68
2021/12/04 06:57:44;;;;;;;6.32;1.55;;;;;;;17.31;76.95;100827.28;5044412;28;20731;-69
2021/12/04 07:00:13;;;;;;;3.80;1.10;;;;;;;17.47;76.78;100832.41;5045506;28;20047;-69
2021/12/04 07:02:41;;;;;;;9.13;1.50;;;;;;;17.64;76.02;100826.03;5045176;28;20085;-70
2021/12/04 07:05:09;;;;;;;5.70;1.15;;;;;;;17.65;74.29;100815.34;5044425;28;20044;-69
2021/12/04 07:07:36;;;;;;;3.38;0.68;;;;;;;17.69;74.08;100840.19;5044666;28;20073;-70
2021/12/04 07:10:07;;;;;;;2.10;0.80;;;;;;;17.88;74.24;100852.41;5061105;28;20079;-70
2021/12/04 07:12:35;;;;;;;3.97;1.10;;;;;;;17.93;72.64;100875.50;5045012;28;20055;-70
2021/12/04 07:15:03;;;;;;;3.47;0.90;;;;;;;18.15;74.32;100867.19;5045789;28;20049;-70
2021/12/04 07:17:33;;;;;;;3.85;0.88;;;;;;;18.43;75.34;100881.06;5045373;28;20052;-70
2021/12/04 07:20:01;;;;;;;7.45;1.30;;;;;;;18.83;75.75;100881.38;5049423;28;20071;-72
2021/12/04 07:22:29;;;;;;;3.78;1.10;;;;;;;19.15;72.24;100886.16;5047809;28;20261;-69
2021/12/04 07:24:58;;;;;;;6.63;1.77;;;;;;;19.37;71.06;100890.22;5047331;28;20138;-69
2021/12/04 07:27:29;;;;;;;5.05;1.63;;;;;;;19.71;71.38;100902.09;5046983;28;20060;-70
2021/12/04 07:29:59;;;;;;;6.82;1.90;;;;;;;20.06;70.98;100905.84;5043396;28;20541;-69
2021/12/04 07:32:27;;;;;;;6.78;1.30;;;;;;;20.37;68.80;100906.97;5045547;28;20044;-70
2021/12/04 07:34:55;;;;;;;2.78;1.05;;;;;;;20.54;66.50;100917.34;5045693;28;20148;-70
2021/12/04 07:37:23;;;;;;;8.05;1.30;;;;;;;20.71;64.84;100922.31;5061429;28;20156;-69
2021/12/04 07:39:52;;;;;;;9.77;1.60;;;;;;;20.79;63.41;100921.22;5032516;28;20540;-70
2021/12/04 07:42:20;;;;;;;4.05;0.90;;;;;;;20.79;61.60;100923.91;5063624;28;20044;-69
2021/12/04 07:44:51;;;;;;;9.57;1.38;;;;;;;20.76;61.28;100915.03;5048388;28;20045;-69
2021/12/04 07:47:18;;;;;;;4.50;1.05;;;;;;;20.72;60.61;100941.06;5046847;28;20056;-69
2021/12/04 07:49:46;;;;;;;5.28;0.65;;;;;;;20.55;60.64;100962.00;5049165;28;20099;-69
2021/12/04 07:52:14;;;;;;;5.18;0.98;;;;;;;20.41;60.67;100988.28;5048494;28;20202;-69
2021/12/04 07:54:42;;;;;;;5.90;1.10;;;;;;;20.32;60.62;101005.41;5046372;28;20057;-69
2021/12/04 07:57:10;;;;;;;9.88;4.97;;;;;;;20.26;61.08;101009.09;5047547;28;20123;-68
2021/12/04 07:59:38;;;;;;;11.00;4.50;;;;;;;20.28;61.33;100996.50;5063493;28;20060;-68
2021/12/04 08:02:09;;;;;;;4.82;1.98;;;;;;;20.16;61.60;100977.13;5044544;28;20049;-69
2021/12/04 08:04:36;;;;;;;5.35;2.05;;;;;;;20.02;62.17;100995.28;5045349;28;20977;-68
2021/12/04 08:07:05;;;;;;;6.10;1.48;;;;;;;19.97;61.61;100994.47;5046441;28;20040;-68
2021/12/04 08:09:33;;;;;;;6.90;1.30;;;;;;;19.79;61.53;100982.31;5048662;28;20059;-67
2021/12/04 08:12:01;;;;;;;3.50;0.93;;;;;;;19.57;61.72;100971.09;5047733;28;20138;-68
2021/12/04 08:14:29;;;;;;;12.80;2.03;;;;;;;19.44;62.55;100940.06;5047928;28;20055;-67
2021/12/04 08:16:57;;;;;;;8.88;2.00;;;;;;;19.24;63.39;100939.53;5047247;28;20048;-67
2021/12/04 08:19:26;;;;;;;11.40;1.90;;;;;;;19.06;64.05;100908.59;5060436;28;20094;-68
2021/12/04 08:21:54;;;;;;;6.43;1.67;;;;;;;18.91;64.74;100858.91;5047885;28;20223;-67
2021/12/04 08:24:22;;;;;;;10.88;1.90;;;;;;;18.92;65.34;100836.59;5046570;28;20154;-68
2021/12/04 08:26:49;;;;;;;6.40;1.58;;;;;;;19.32;65.59;100827.84;5040595;28;20052;-67
2021/12/04 08:29:17;;;;;;;7.00;1.27;;;;;;;19.65;62.59;100823.66;5046509;28;21501;-67
2021/12/04 08:31:47;;;;;;;7.93;1.35;;;;;;;19.87;61.62;100803.53;5044690;28;20114;-68
2021/12/04 08:34:15;;;;;;;8.38;1.05;;;;;;;20.15;62.15;100806.50;5078933;28;20102;-67
2021/12/04 08:36:44;;;;;;;10.20;2.35;;;;;;;20.52;61.38;100804.72;5046017;28;20056;-68
2021/12/04 08:39:12;;;;;;;4.30;1.13;;;;;;;20.91;60.99;100816.25;5066322;28;20041;-67
2021/12/04 08:41:40;;;;;;;4.93;0.90;;;;;;;21.26;58.75;100818.03;5070010;28;20043;-67
2021/12/04 08:44:08;;;;;;;4.57;1.10;;;;;;;21.53;57.80;100820.88;5069156;28;20492;-67
2021/12/04 08:46:37;;;;;;;2.97;0.88;;;;;;;21.65;55.82;100805.28;5069276;28;20049;-67
2021/12/04 08:49:07;;;;;;;4.10;1.00;;;;;;;21.62;55.53;100820.59;5084542;28;20044;-67
2021/12/04 08:51:35;;;;;;;2.45;0.88;;;;;;;21.68;55.07;100836.53;5073005;28;20380;-67
2021/12/04 08:54:05;;;;;;;6.38;0.82;;;;;;;21.84;54.40;100851.31;5088996;28;20471;-67
2021/12/04 08:56:34;;;;;;;6.22;1.27;;;;;;;21.94;53.23;100855.47;5070983;28;20483;-68
2021/12/04 08:59:02;;;;;;;8.25;1.60;;;;;;;21.97;53.60;100873.38;5069706;28;20049;-67
2021/12/04 09:01:33;;;;;;;6.82;1.40;;;;;;;22.13;52.82;100906.94;5036343;28;20032;-68
2021/12/04 09:04:04;;;;;;;8.18;1.63;;;;;;;22.06;51.79;100916.97;5087405;28;21459;-67
2021/12/04 09:06:32;;;;;;;11.60;6.90;;;;;;;21.72;53.13;100906.31;5070658;28;20059;-67
2021/12/04 09:09:00;;;;;;;13.48;10.50;;;;;;;21.48;53.53;100829.94;5088245;28;20032;-68
2021/12/04 09:11:35;;;;;;;6.25;1.92;;;;;;;21.27;53.87;100749.94;5086941;28;20060;-68
2021/12/04 09:14:03;;;;;;;6.30;1.40;;;;;;;21.08;56.43;100729.88;5087082;28;20514;-68
2021/12/04 09:16:31;;;;;;;4.35;1.30;;;;;;;20.82;58.11;100729.72;5088169;28;20051;-68
2021/12/04 09:18:59;;;;;;;7.05;1.55;;;;;;;20.78;58.04;100733.41;5070176;28;20036;-67
2021/12/04 09:21:28;;;;;;;4.80;1.13;;;;;;;20.97;58.04;100740.94;5073884;28;20044;-67
2021/12/04 09:24:05;;;;;;;6.75;1.40;;;;;;;21.15;56.82;100728.78;5066779;28;20039;-67
2021/12/04 09:26:44;;;;;;;6.07;1.40;;;;;;;20.94;55.32;100732.94;5068541;28;20048;-67
2021/12/04 09:29:26;;;;;;;6.32;1.33;;;;;;;20.87;55.29;100725.97;5068251;28;20048;-68
2021/12/04 09:34:57;;;;;;;9.73;1.60;;;;;;;21.42;54.31;100727.13;5085069;28;20507;-67
2021/12/04 10:02:34;;;;;;;7.90;1.30;;;;;;;22.03;52.47;100749.50;5060557;28;20040;-68
2021/12/04 10:05:23;;;;;;;8.88;1.20;;;;;;;22.00;52.27;100739.72;5067911;28;20411;-67
2021/12/04 10:22:04;;;;;;;5.55;1.35;;;;;;;21.89;50.43;100723.00;5024090;28;20041;-66
2021/12/04 10:24:45;;;;;;;9.65;1.73;;;;;;;21.75;51.01;100717.19;5039176;28;20045;-68
2021/12/04 10:33:12;;;;;;;7.72;1.42;;;;;;;21.87;51.18;100714.97;5064162;28;20050;-67
2021/12/04 10:35:41;;;;;;;2.63;0.80;;;;;;;21.90;51.10;100708.66;5059885;28;20045;-68
2021/12/04 10:38:14;;;;;;;7.68;1.08;;;;;;;21.84;50.59;100696.28;5065156;28;20614;-67
2021/12/04 10:40:43;;;;;;;5.93;1.20;;;;;;;21.83;50.70;100709.75;5047627;28;20037;-67
2021/12/04 10:43:15;;;;;;;4.47;1.20;;;;;;;21.85;50.80;100699.84;5076811;28;20155;-67
2021/12/04 10:45:49;;;;;;;8.68;1.50;;;;;;;22.00;51.23;100698.50;5040720;28;20041;-67
2021/12/04 10:48:20;;;;;;;6.47;1.08;;;;;;;22.18;50.98;100689.84;5049529;28;20057;-67
2021/12/04 10:50:56;;;;;;;4.03;1.25;;;;;;;22.28;50.07;100683.22;5041302;28;20045;-68
2021/12/04 10:53:28;;;;;;;6.75;0.75;;;;;;;22.15;49.23;100701.56;5058565;28;20037;-68
2021/12/04 10:56:07;;;;;;;4.93;1.40;;;;;;;22.03;49.27;100696.59;5066023;28;20041;-68
2021/12/04 11:01:39;;;;;;;4.80;1.10;;;;;;;21.56;50.42;100657.75;5065403;28;20051;-67
2021/12/04 11:04:24;;;;;;;2.53;0.73;;;;;;;21.32;51.00;100661.22;5051299;28;20388;-67
2021/12/04 11:24:18;;;;;;;6.10;1.33;;;;;;;21.34;53.26;100651.28;5047380;28;20048;-67
2021/12/04 11:35:51;;;;;;;12.38;1.63;;;;;;;20.84;53.81;100609.81;5048437;28;20045;-67
2021/12/04 11:38:31;;;;;;;7.05;1.50;;;;;;;20.65;54.35;100610.34;5045445;28;20053;-68
2021/12/04 11:41:14;;;;;;;6.05;1.42;;;;;;;20.45;54.58;100618.06;5043301;28;20059;-68
2021/12/04 11:43:53;;;;;;;6.93;1.67;;;;;;;20.38;54.99;100613.78;5044225;28;20040;-68
2021/12/04 11:46:28;;;;;;;5.63;1.27;;;;;;;20.33;55.44;100613.03;5044972;28;20049;-67
2021/12/04 11:48:59;;;;;;;;;;;;;;;20.25;54.85;100596.22;5041517;28;20045;-68
2021/12/04 11:51:27;;;;;;;7.10;1.45;;;;;;;20.18;55.64;100591.94;5080620;28;19927;-68
2021/12/04 11:53:57;;;;;;;7.35;1.30;;;;;;;20.14;55.56;100603.69;5030928;28;20061;-68
2021/12/04 11:56:28;;;;;;;8.60;1.95;;;;;;;20.16;55.10;100604.50;5047978;28;20656;-68
2021/12/04 11:58:57;;;;;;;8.15;1.63;;;;;;;20.17;55.42;100606.25;5047094;28;20049;-68
2021/12/04 12:01:31;;;;;;;11.90;1.65;;;;;;;20.21;55.93;100613.31;5055742;28;20093;-67
2021/12/04 12:04:02;;;;;;;4.30;1.23;;;;;;;20.36;56.15;100593.28;5067805;28;20041;-67
2021/12/04 12:06:36;;;;;;;8.00;1.20;;;;;;;20.30;54.90;100603.22;5060772;28;20279;-68
2021/12/04 12:09:12;;;;;;;5.50;1.08;;;;;;;20.21;54.85;100606.16;5093238;28;20033;-67
2021/12/04 12:11:50;;;;;;;8.73;1.45;;;;;;;20.21;54.88;100594.56;5068951;28;20057;-67
2021/12/04 12:14:21;;;;;;;5.75;1.30;;;;;;;20.18;55.29;100592.81;5050348;28;20048;-68
2021/12/04 12:16:52;;;;;;;2.88;0.90;;;;;;;20.14;55.77;100595.63;5048481;28;20126;-68
2021/12/04 12:19:27;;;;;;;7.40;1.45;;;;;;;20.05;56.90;100585.13;5044576;28;20048;-68
2021/12/04 12:22:00;;;;;;;5.47;1.60;;;;;;;19.96;58.33;100588.03;5055168;28;20037;-67
2021/12/04 12:27:30;;;;;;;3.45;1.25;;;;;;;20.04;56.75;100596.78;5062315;28;20041;-68
2021/12/04 12:32:55;;;;;;;7.32;1.27;;;;;;;20.02;55.81;100601.31;5045889;28;20079;-68
2021/12/04 12:38:16;;;;;;;8.10;1.80;;;;;;;20.16;56.16;100609.84;5067242;28;20059;-68
2021/12/04 12:40:57;;;;;;;6.65;1.75;;;;;;;20.11;56.35;100598.38;5061048;28;20041;-68
2021/12/04 12:43:38;;;;;;;4.70;1.05;;;;;;;20.05;56.48;100602.09;5047113;28;20041;-68
2021/12/04 12:46:06;;;;;;;8.95;1.85;;;;;;;20.06;56.91;100603.88;5056664;28;20515;-68
2021/12/04 12:48:47;;;;;;;8.43;1.80;;;;;;;20.14;56.97;100601.88;5054028;28;20049;-68
2021/12/04 12:51:16;;;;;;;7.97;1.92;;;;;;;20.21;57.18;100603.47;5046826;28;20135;-68
2021/12/04 12:53:48;;;;;;;6.70;1.60;;;;;;;20.20;56.90;100601.72;5067818;28;20044;-67
2021/12/04 12:56:18;;;;;;;9.23;2.00;;;;;;;20.17;57.07;100611.63;5067333;28;20164;-68
2021/12/04 12:58:53;;;;;;;6.50;0.95;;;;;;;20.13;57.14;100609.94;5067593;28;20059;-68
2021/12/04 13:12:48;;;;;;;6.72;1.80;;;;;;;20.10;57.42;100593.94;5059874;28;20049;-67
2021/12/04 13:15:29;;;;;;;7.13;1.48;;;;;;;20.03;57.89;100598.56;5067977;28;20052;-68
2021/12/04 13:17:57;;;;;;;8.55;2.00;;;;;;;19.91;58.76;100598.88;5067456;28;20045;-68
2021/12/04 13:20:25;;;;;;;12.30;2.90;;;;;;;19.66;61.10;100609.34;5050146;28;20052;-68
2021/12/04 13:22:53;;;;;;;10.63;2.38;;;;;;;18.88;65.20;100604.84;5066965;28;20040;-69
2021/12/04 13:25:21;;;;;;;14.88;2.63;;;;;;;18.25;69.64;100613.16;5066633;28;20506;-69
2021/12/04 13:30:16;;;;;;;22.20;14.38;;;;;;;17.92;72.57;100627.09;5067146;28;20044;-68
2021/12/04 13:32:47;;;;;;;25.40;13.60;;;;;;;17.91;72.48;100622.69;5066597;28;20059;-68
2021/12/04 13:35:20;;;;;;;21.83;8.77;;;;;;;17.96;72.07;100610.13;5027181;28;20061;-68
2021/12/04 13:37:48;;;;;;;16.20;4.30;;;;;;;17.95;72.72;100620.84;5048382;28;20041;-68
2021/12/04 13:40:19;;;;;;;14.70;4.38;;;;;;;17.97;72.39;100611.91;5046178;28;20056;-68
2021/12/04 13:42:48;;;;;;;12.63;3.20;;;;;;;18.03;72.48;100616.25;5051929;28;20067;-67
2021/12/04 13:45:20;;;;;;;9.27;3.08;;;;;;;17.96;72.67;100609.25;5046705;28;20206;-68
2021/12/04 13:47:53;;;;;;;8.30;2.53;;;;;;;17.95;72.60;100603.03;5046554;28;20129;-67
2021/12/04 13:53:15;;;;;;;10.18;2.33;;;;;;;17.81;72.61;100599.69;5047440;28;25355;-67
2021/12/04 13:55:47;;;;;;;8.27;1.95;;;;;;;17.64;73.20;100601.78;5047601;28;20094;-67
2021/12/04 13:58:15;;;;;;;8.30;2.35;;;;;;;17.53;73.64;100591.19;5058941;28;20088;-67
2021/12/04 14:00:45;;;;;;;8.30;1.77;;;;;;;17.53;74.42;100578.75;5027412;28;20120;-68
2021/12/04 14:03:13;;;;;;;8.98;2.47;;;;;;;17.51;74.20;100572.56;5050872;28;20033;-68
2021/12/04 14:05:41;;;;;;;5.97;1.77;;;;;;;17.47;74.22;100570.84;5046466;28;20044;-68
2021/12/04 14:08:10;;;;;;;3.75;1.40;;;;;;;17.45;75.18;100570.00;5075547;28;20053;-68
2021/12/04 14:10:41;;;;;;;8.60;2.30;;;;;;;17.51;75.84;100566.34;5046335;28;20037;-68
2021/12/04 14:13:10;;;;;;;8.45;2.13;;;;;;;17.58;75.71;100567.13;5045919;28;20171;-68